Beale AFB

About
Name: Beale AFB
Identifier:  BAB/KBAB
Local Time:  22. Aug 21:59 PDT
Location
Flights per Day
0 flights
Distance: 574km (356mi)
Current Weather
 28 C (Humidity: 48%)
  0kt (0km/h / 0mph) from 0°
  16km (10 mi.)
 
 METAR KBAB 230358Z AUTO 00000KT 10SM CLR 28/16 A2965 RMK AO2 SLP042 T02750155 $

Current Flights

Departures
Number Departure To Airline
Arrivals
Number Arrival From Airline

Current Delays

Departures
N/A
Arrivals
N/A

Destinations

Top Destinations
Airport Flights
per week
Seats
per week
  Eugene (EUG) 0 - 0 0

Airlines & Planes

Top Airlines
Airline Flights
per Day
Seats
per Day
  Flybe Nordic 0 -
Top Plane Types
Model Flights Seats